Prue, Oklahoma
Current Conditions -  °F | °C
As of 11:35 AM on Tuesday 21 Oct 2014 (Local Time) from KOWP Reporting Station
Clear Clear  
Wind Chill: 74°   Ceiling: Unl
Heat Index: 74°   Visibility: 10mi
Dew Point: 62°   Wind: 6mph
Humidity: 66%   Direction: 120°ESE
Pressure: 30.12"   Gusts: NA
Location:  36.24°N, 96.32°W
Report Text: KOWP 211635Z AUTO 12005KT 10SM CLR 23/17 A3012 RMK AO2 T02320165
Loading
Personal Weather Stations






























Interactive Weather Map
Tropical Storm Tracking
New forecast layout! Learn more

10-Day Weather Forecast

Advertisements
Track Severe Weather on mobile